createdAt,value
2022-12-14T00:01:31.335Z,-5.43
2022-12-14T00:03:59.229Z,-5.29
2022-12-14T00:06:29.511Z,-5.45
2022-12-14T00:08:59.305Z,-5.48
2022-12-14T00:11:28.127Z,-5.40
2022-12-14T00:13:57.609Z,-5.48
2022-12-14T00:16:28.816Z,-5.57
2022-12-14T00:18:58.236Z,-5.37
2022-12-14T00:21:26.407Z,-5.49
2022-12-14T00:23:54.834Z,-5.54
2022-12-14T00:26:24.386Z,-5.49
2022-12-14T00:28:53.593Z,-5.45
2022-12-14T00:31:22.088Z,-5.39
2022-12-14T00:33:51.867Z,-5.41
2022-12-14T00:36:20.103Z,-5.40
2022-12-14T00:38:48.067Z,-5.39
2022-12-14T00:41:16.020Z,-5.33
2022-12-14T00:43:44.154Z,-5.60
2022-12-14T00:46:12.122Z,-5.70
2022-12-14T00:48:40.115Z,-5.63
2022-12-14T00:51:09.394Z,-5.61
2022-12-14T00:53:37.756Z,-5.56
2022-12-14T00:56:06.710Z,-5.49
2022-12-14T00:58:34.661Z,-5.54
2022-12-14T01:01:04.231Z,-5.61
2022-12-14T01:03:32.726Z,-5.48
2022-12-14T01:06:01.385Z,-5.62
2022-12-14T01:08:35.735Z,-5.74
2022-12-14T01:11:06.294Z,-5.64
2022-12-14T01:13:34.821Z,-5.73
2022-12-14T01:16:06.982Z,-5.60
2022-12-14T01:18:36.258Z,-5.67
2022-12-14T01:21:11.861Z,-5.90
2022-12-14T01:23:41.429Z,-5.88
2022-12-14T01:26:09.385Z,-5.90
2022-12-14T01:28:37.304Z,-5.99
2022-12-14T01:31:10.011Z,-5.93
2022-12-14T01:33:38.504Z,-5.96
2022-12-14T01:36:07.687Z,-5.94
2022-12-14T01:38:35.669Z,-5.97
2022-12-14T01:41:05.752Z,-5.90
2022-12-14T01:43:50.676Z,-5.86
2022-12-14T01:46:23.793Z,-5.83
2022-12-14T01:48:53.013Z,-5.98
2022-12-14T01:51:20.996Z,-5.95
2022-12-14T01:53:49.336Z,-6.07
2022-12-14T01:56:19.171Z,-6.05
2022-12-14T01:58:47.073Z,-6.03
2022-12-14T02:01:16.567Z,-6.09
2022-12-14T02:03:47.516Z,-6.06
2022-12-14T02:06:19.100Z,-5.91
2022-12-14T02:08:48.990Z,-6.04
2022-12-14T02:11:21.992Z,-5.99
2022-12-14T02:13:49.914Z,-6.03
2022-12-14T02:16:17.843Z,-6.03
2022-12-14T02:18:45.929Z,-5.96
2022-12-14T02:21:22.921Z,-6.04
2022-12-14T02:24:15.315Z,-6.02
2022-12-14T02:27:04.867Z,-6.00
2022-12-14T02:29:50.201Z,-5.83
2022-12-14T02:32:32.079Z,-5.98
2022-12-14T02:35:04.064Z,-5.97
2022-12-14T02:37:37.265Z,-5.99
2022-12-14T02:40:15.441Z,-5.91
2022-12-14T02:42:50.823Z,-5.87
2022-12-14T02:45:26.385Z,-6.03
2022-12-14T02:47:58.106Z,-6.04
2022-12-14T02:50:30.652Z,-6.10
2022-12-14T02:53:04.573Z,-6.11
2022-12-14T02:55:35.231Z,-6.10
2022-12-14T02:58:05.512Z,-6.07
2022-12-14T03:00:36.665Z,-6.10
2022-12-14T03:03:06.478Z,-6.04
2022-12-14T03:05:34.676Z,-6.01
2022-12-14T03:08:03.851Z,-6.11
2022-12-14T03:10:37.761Z,-6.12
2022-12-14T03:13:12.757Z,-6.02
2022-12-14T03:15:43.418Z,-5.91
2022-12-14T03:18:15.068Z,-6.10
2022-12-14T03:20:43.724Z,-6.17
2022-12-14T03:23:13.714Z,-6.17
2022-12-14T03:25:46.005Z,-6.10
2022-12-14T03:28:19.973Z,-6.09
2022-12-14T03:31:01.052Z,-6.19
2022-12-14T03:33:31.060Z,-6.18
2022-12-14T03:36:05.038Z,-6.25
2022-12-14T03:38:35.169Z,-6.24
2022-12-14T03:41:09.280Z,-6.22
2022-12-14T03:43:39.628Z,-6.12
2022-12-14T03:46:12.897Z,-6.15
2022-12-14T03:48:45.532Z,-6.24
2022-12-14T03:51:18.402Z,-6.10
2022-12-14T03:53:50.201Z,-6.03
2022-12-14T03:56:22.248Z,-6.17
2022-12-14T03:58:57.330Z,-6.00
2022-12-14T04:01:32.210Z,-6.19
2022-12-14T04:04:02.167Z,-6.02
2022-12-14T04:06:36.536Z,-5.78
2022-12-14T04:09:09.804Z,-5.99
2022-12-14T04:11:58.273Z,-5.87
2022-12-14T04:14:48.854Z,-6.05
2022-12-14T04:17:39.056Z,-5.93
2022-12-14T04:20:11.044Z,-5.93
2022-12-14T04:22:41.978Z,-5.90
2022-12-14T04:25:31.700Z,-6.07
2022-12-14T04:28:02.825Z,-6.12
2022-12-14T04:30:32.456Z,-6.15
2022-12-14T04:33:23.896Z,-6.20
2022-12-14T04:35:52.816Z,-6.60
2022-12-14T04:38:24.548Z,-6.78
2022-12-14T04:40:54.008Z,-6.72
2022-12-14T04:43:25.973Z,-6.76
2022-12-14T04:45:58.432Z,-6.90
2022-12-14T04:48:33.096Z,-6.95
2022-12-14T04:51:05.045Z,-7.06
2022-12-14T04:53:35.344Z,-7.04
2022-12-14T04:56:09.573Z,-6.89
2022-12-14T04:58:37.879Z,-6.67
2022-12-14T05:01:16.132Z,-6.56
2022-12-14T05:03:52.424Z,-6.35
2022-12-14T05:06:25.340Z,-6.29
2022-12-14T05:09:11.379Z,-6.20
2022-12-14T05:11:53.694Z,-6.17
2022-12-14T05:14:27.797Z,-6.14
2022-12-14T05:16:55.789Z,-6.09
2022-12-14T05:19:26.766Z,-6.07
2022-12-14T05:21:56.071Z,-6.08
2022-12-14T05:24:24.038Z,-6.26
2022-12-14T05:26:51.928Z,-6.43
2022-12-14T05:29:19.825Z,-6.72
2022-12-14T05:31:49.223Z,-6.57
2022-12-14T05:34:18.087Z,-6.49
2022-12-14T05:36:47.389Z,-6.41
2022-12-14T05:39:15.784Z,-6.19
2022-12-14T05:41:44.044Z,-6.12
2022-12-14T05:44:11.992Z,-6.07
2022-12-14T05:46:40.127Z,-6.01
2022-12-14T05:49:08.016Z,-6.00
2022-12-14T05:51:35.999Z,-5.95
2022-12-14T05:54:05.737Z,-5.88
2022-12-14T05:56:33.644Z,-5.88
2022-12-14T05:59:02.598Z,-5.92
2022-12-14T06:01:30.588Z,-5.93
2022-12-14T06:03:58.632Z,-5.94
2022-12-14T06:06:26.648Z,-6.06
2022-12-14T06:08:54.532Z,-6.24
2022-12-14T06:11:24.434Z,-6.18
2022-12-14T06:13:52.662Z,-6.06
2022-12-14T06:16:22.374Z,-6.06
2022-12-14T06:18:51.939Z,-5.94
2022-12-14T06:21:20.817Z,-6.03
2022-12-14T06:23:48.998Z,-6.02
2022-12-14T06:26:17.287Z,-6.06
2022-12-14T06:28:46.796Z,-6.09
2022-12-14T06:31:17.684Z,-6.17
2022-12-14T06:33:45.719Z,-6.04
2022-12-14T06:36:19.374Z,-5.79
2022-12-14T06:38:47.532Z,-5.80
2022-12-14T06:41:15.408Z,-5.98
2022-12-14T06:43:43.351Z,-6.11
2022-12-14T06:46:15.779Z,-6.12
2022-12-14T06:48:44.388Z,-6.18
2022-12-14T06:51:12.426Z,-6.19
2022-12-14T06:53:40.294Z,-6.08
2022-12-14T06:56:09.671Z,-5.85
2022-12-14T06:58:37.617Z,-5.73
2022-12-14T07:01:07.511Z,-5.88
2022-12-14T07:03:37.341Z,-6.12
2022-12-14T07:06:06.239Z,-6.05
2022-12-14T07:08:35.689Z,-5.90
2022-12-14T07:11:04.453Z,-5.96
2022-12-14T07:13:32.544Z,-6.20
2022-12-14T07:16:01.907Z,-6.08
2022-12-14T07:18:30.462Z,-6.02
2022-12-14T07:21:01.782Z,-6.08
2022-12-14T07:23:32.015Z,-6.32
2022-12-14T07:26:02.697Z,-6.53
2022-12-14T07:28:30.664Z,-6.39
2022-12-14T07:30:59.397Z,-6.59
2022-12-14T07:33:28.790Z,-6.31
2022-12-14T07:36:04.692Z,-6.29
2022-12-14T07:38:33.586Z,-6.30
2022-12-14T07:41:06.249Z,-6.60
2022-12-14T07:43:35.161Z,-6.88
2022-12-14T07:46:04.937Z,-7.10
2022-12-14T07:48:33.229Z,-6.84
2022-12-14T07:51:07.306Z,-6.71
2022-12-14T07:53:36.231Z,-6.61
2022-12-14T07:56:04.800Z,-6.55
2022-12-14T07:58:33.350Z,-6.40
2022-12-14T08:01:12.706Z,-6.37
2022-12-14T08:03:41.918Z,-6.29
2022-12-14T08:06:12.549Z,-6.22
2022-12-14T08:08:40.850Z,-6.30
2022-12-14T08:11:09.424Z,-6.72
2022-12-14T08:13:38.907Z,-6.80
2022-12-14T08:16:08.555Z,-7.03
2022-12-14T08:18:37.032Z,-7.00
2022-12-14T08:21:07.096Z,-6.80
2022-12-14T08:23:36.903Z,-6.64
2022-12-14T08:26:06.596Z,-6.65
2022-12-14T08:28:35.992Z,-6.96
2022-12-14T08:31:08.656Z,-7.11
2022-12-14T08:33:37.721Z,-7.21
2022-12-14T08:36:08.010Z,-7.19
2022-12-14T08:38:37.402Z,-6.89
2022-12-14T08:41:05.702Z,-6.68
2022-12-14T08:43:33.905Z,-6.50
2022-12-14T08:46:02.105Z,-6.40
2022-12-14T08:48:30.458Z,-6.43
2022-12-14T08:51:02.485Z,-6.41
2022-12-14T08:53:30.717Z,-6.52
2022-12-14T08:56:00.575Z,-6.51
2022-12-14T08:58:28.479Z,-6.46
2022-12-14T09:01:03.282Z,-6.45
2022-12-14T09:03:31.701Z,-6.37
2022-12-14T09:06:04.305Z,-6.35
2022-12-14T09:08:32.576Z,-6.24
2022-12-14T09:11:02.462Z,-6.26
2022-12-14T09:13:31.048Z,-6.19
2022-12-14T09:16:00.450Z,-6.13
2022-12-14T09:18:29.019Z,-6.10
2022-12-14T09:20:57.353Z,-5.98
2022-12-14T09:23:26.519Z,-5.91
2022-12-14T09:26:04.480Z,-5.88
2022-12-14T09:28:33.587Z,-5.79
2022-12-14T09:31:03.528Z,-5.73
2022-12-14T09:33:32.350Z,-5.64
2022-12-14T09:36:01.815Z,-5.55
2022-12-14T09:38:31.053Z,-5.42
2022-12-14T09:41:00.879Z,-5.38
2022-12-14T09:43:40.692Z,-5.40
2022-12-14T09:46:18.825Z,-5.33
2022-12-14T09:48:47.151Z,-5.15
2022-12-14T09:51:16.674Z,-5.18
2022-12-14T09:53:45.828Z,-5.10
2022-12-14T09:56:17.395Z,-5.03
2022-12-14T09:58:53.998Z,-4.92
2022-12-14T10:02:13.971Z,-4.86
2022-12-14T10:04:47.675Z,-4.81
2022-12-14T10:07:21.396Z,-4.57
2022-12-14T10:09:54.182Z,-4.40
2022-12-14T10:12:36.839Z,-4.45
2022-12-14T10:15:17.626Z,-4.29
2022-12-14T10:18:33.935Z,-4.14
2022-12-14T10:21:06.465Z,-3.85
2022-12-14T10:23:35.595Z,-3.60
2022-12-14T10:26:09.001Z,-3.32
2022-12-14T10:28:44.652Z,-3.80
2022-12-14T10:31:16.518Z,-3.99
2022-12-14T10:33:46.318Z,-4.04
2022-12-14T10:36:21.238Z,-4.07
2022-12-14T10:38:53.788Z,-3.85
2022-12-14T10:41:28.770Z,-3.76
2022-12-14T10:44:01.189Z,-3.56
2022-12-14T10:46:38.682Z,-3.55
2022-12-14T10:49:12.061Z,-3.36
2022-12-14T10:51:43.332Z,-3.09
2022-12-14T10:54:21.428Z,-2.67
2022-12-14T10:56:50.374Z,-2.44
2022-12-14T10:59:38.574Z,-2.38
2022-12-14T11:02:13.951Z,-2.29
2022-12-14T11:04:48.750Z,-2.29
2022-12-14T11:07:18.605Z,-2.08
2022-12-14T11:09:46.884Z,-2.19
2022-12-14T11:12:20.961Z,-2.45
2022-12-14T11:14:55.322Z,-2.18
2022-12-14T11:17:36.750Z,-2.02
2022-12-14T11:20:10.829Z,-2.08
2022-12-14T11:22:45.063Z,-1.91
2022-12-14T11:25:29.723Z,-2.18
2022-12-14T11:27:57.802Z,-2.21
2022-12-14T11:30:25.751Z,-2.18
2022-12-14T11:32:55.330Z,-2.23
2022-12-14T11:35:23.436Z,-2.11
2022-12-14T11:37:52.049Z,-2.16
2022-12-14T11:40:22.476Z,-1.79
2022-12-14T11:42:51.275Z,-1.54
2022-12-14T11:45:29.362Z,-1.41
2022-12-14T11:48:20.539Z,-1.16
2022-12-14T11:50:49.791Z,-1.03
2022-12-14T11:53:19.738Z,-1.42
2022-12-14T11:55:51.076Z,-1.19
2022-12-14T11:58:20.982Z,-0.97
2022-12-14T12:00:52.489Z,-0.82
2022-12-14T12:03:25.495Z,-0.80
2022-12-14T12:05:54.187Z,-0.75
2022-12-14T12:08:25.017Z,-0.96
2022-12-14T12:10:54.769Z,-0.82
2022-12-14T12:13:25.784Z,-0.66
2022-12-14T12:15:56.402Z,-0.63
2022-12-14T12:18:30.829Z,-0.55
2022-12-14T12:21:02.567Z,-0.51
2022-12-14T12:23:35.007Z,-0.38
2022-12-14T12:26:15.769Z,-0.54
2022-12-14T12:28:48.566Z,-0.46
2022-12-14T12:31:20.793Z,-0.59
2022-12-14T12:33:54.255Z,-0.50
2022-12-14T12:36:24.258Z,-0.81
2022-12-14T12:39:05.335Z,-1.15
2022-12-14T12:41:39.306Z,-0.80
2022-12-14T12:44:16.705Z,-0.89
2022-12-14T12:47:22.928Z,-0.73
2022-12-14T12:49:44.569Z,-0.73
2022-12-14T12:52:21.209Z,-0.85
2022-12-14T12:54:55.423Z,-1.07
2022-12-14T12:57:24.323Z,-0.79
2022-12-14T12:59:54.714Z,-0.78
2022-12-14T13:02:30.554Z,-1.03
2022-12-14T13:05:22.009Z,-0.87
2022-12-14T13:07:54.244Z,-0.82
2022-12-14T13:10:24.784Z,-0.81
2022-12-14T13:12:55.216Z,-0.92
2022-12-14T13:15:25.906Z,-1.02
2022-12-14T13:17:57.136Z,-0.95
2022-12-14T13:20:31.900Z,-0.98
2022-12-14T13:23:15.226Z,-0.92
2022-12-14T13:25:55.480Z,-0.95
2022-12-14T13:28:44.061Z,-1.02
2022-12-14T13:31:21.433Z,-1.04
2022-12-14T13:34:08.176Z,-0.98
2022-12-14T13:36:54.968Z,-1.24
2022-12-14T13:39:41.011Z,-1.33
2022-12-14T13:42:10.912Z,-1.62
2022-12-14T13:44:57.343Z,-1.58
2022-12-14T13:47:30.883Z,-1.43
2022-12-14T13:52:51.826Z,-1.23
2022-12-14T13:55:28.781Z,-1.37
2022-12-14T13:58:08.188Z,-1.40
2022-12-14T14:00:59.176Z,-1.60
2022-12-14T14:03:51.438Z,-1.72
2022-12-14T14:06:22.689Z,-1.51
2022-12-14T14:08:53.782Z,-1.58
2022-12-14T14:11:47.215Z,-1.64
2022-12-14T14:14:22.461Z,-1.96
2022-12-14T14:16:52.463Z,-1.93
2022-12-14T14:19:23.925Z,-1.74
2022-12-14T14:22:23.252Z,-1.91
2022-12-14T14:24:56.773Z,-1.94
2022-12-14T14:27:27.258Z,-1.96
2022-12-14T14:29:56.020Z,-2.10
2022-12-14T14:32:39.165Z,-2.02
2022-12-14T14:35:09.208Z,-2.01
2022-12-14T14:37:38.789Z,-2.03
2022-12-14T14:40:44.231Z,-2.05
2022-12-14T14:43:23.477Z,-2.08
2022-12-14T14:45:53.949Z,-2.11
2022-12-14T14:48:26.425Z,-2.20
2022-12-14T14:51:04.700Z,-2.30
2022-12-14T14:53:34.160Z,-2.43
2022-12-14T14:56:13.657Z,-2.42
2022-12-14T14:58:42.804Z,-2.43
2022-12-14T15:01:20.156Z,-2.43
2022-12-14T15:03:57.446Z,-2.47
2022-12-14T15:06:27.667Z,-2.54
2022-12-14T15:09:01.273Z,-2.85
2022-12-14T15:11:42.980Z,-2.80
2022-12-14T15:14:35.014Z,-2.75
2022-12-14T15:17:14.823Z,-2.70
2022-12-14T15:19:48.194Z,-2.88
2022-12-14T15:22:18.639Z,-3.04
2022-12-14T15:24:48.776Z,-3.35
2022-12-14T15:27:25.611Z,-3.59
2022-12-14T15:29:53.983Z,-3.64
2022-12-14T15:32:24.047Z,-3.72
2022-12-14T15:34:55.926Z,-3.66
2022-12-14T15:37:30.326Z,-3.47
2022-12-14T15:40:03.999Z,-3.43
2022-12-14T15:42:33.314Z,-3.53
2022-12-14T15:45:07.563Z,-3.68
2022-12-14T15:47:35.495Z,-3.93
2022-12-14T15:50:17.444Z,-3.86
2022-12-14T15:52:46.252Z,-3.72
2022-12-14T15:55:26.612Z,-3.68
2022-12-14T15:57:56.058Z,-3.86
2022-12-14T16:00:24.002Z,-4.02
2022-12-14T16:02:51.972Z,-4.09
2022-12-14T16:05:21.779Z,-4.19
2022-12-14T16:07:51.670Z,-4.20
2022-12-14T16:10:24.524Z,-4.16
2022-12-14T16:12:57.273Z,-4.08
2022-12-14T16:15:26.968Z,-4.06
2022-12-14T16:18:02.309Z,-4.06
2022-12-14T16:20:39.329Z,-4.03
2022-12-14T16:23:22.227Z,-4.19
2022-12-14T16:25:52.008Z,-4.25
2022-12-14T16:28:26.397Z,-4.61
2022-12-14T16:30:56.907Z,-4.66
2022-12-14T16:33:25.369Z,-4.73
2022-12-14T16:36:02.446Z,-4.73
2022-12-14T16:38:31.193Z,-4.92
2022-12-14T16:41:01.307Z,-5.05
2022-12-14T16:43:34.516Z,-5.05
2022-12-14T16:46:17.611Z,-4.90
2022-12-14T16:49:20.600Z,-4.79
2022-12-14T16:52:07.372Z,-4.68
2022-12-14T16:54:35.881Z,-4.67
2022-12-14T16:57:06.291Z,-4.66
2022-12-14T16:59:42.929Z,-4.90
2022-12-14T17:02:29.429Z,-5.10
2022-12-14T17:05:00.242Z,-5.30
2022-12-14T17:07:29.703Z,-5.38
2022-12-14T17:09:57.732Z,-5.35
2022-12-14T17:12:26.619Z,-5.39
2022-12-14T17:14:55.069Z,-5.24
2022-12-14T17:17:26.199Z,-5.15
2022-12-14T17:19:54.216Z,-5.29
2022-12-14T17:22:26.624Z,-5.25
2022-12-14T17:24:55.371Z,-5.18
2022-12-14T17:27:26.462Z,-5.25
2022-12-14T17:29:54.943Z,-5.33
2022-12-14T17:32:23.384Z,-5.41
2022-12-14T17:34:51.294Z,-5.53
2022-12-14T17:37:20.773Z,-5.55
2022-12-14T17:39:50.461Z,-5.65
2022-12-14T17:42:21.474Z,-5.86
2022-12-14T17:44:53.287Z,-5.76
2022-12-14T17:47:21.225Z,-5.69
2022-12-14T17:49:49.153Z,-5.54
2022-12-14T17:52:19.806Z,-5.31
2022-12-14T17:54:49.197Z,-5.26
2022-12-14T17:57:18.039Z,-5.34
2022-12-14T17:59:47.593Z,-5.49
2022-12-14T18:02:27.218Z,-5.57
2022-12-14T18:04:55.355Z,-5.69
2022-12-14T18:07:23.375Z,-5.68
2022-12-14T18:09:54.389Z,-5.46
2022-12-14T18:12:24.380Z,-5.22
2022-12-14T18:14:52.993Z,-5.03
2022-12-14T18:17:20.923Z,-5.07
2022-12-14T18:19:49.468Z,-5.01
2022-12-14T18:22:17.855Z,-5.07
2022-12-14T18:24:49.551Z,-5.45
2022-12-14T18:27:18.877Z,-5.73
2022-12-14T18:29:46.748Z,-5.95
2022-12-14T18:32:15.453Z,-6.35
2022-12-14T18:34:43.381Z,-6.39
2022-12-14T18:37:11.710Z,-6.38
2022-12-14T18:39:39.621Z,-6.28
2022-12-14T18:42:07.504Z,-5.98
2022-12-14T18:44:37.990Z,-5.73
2022-12-14T18:47:33.577Z,-5.51
2022-12-14T18:49:54.057Z,-5.49
2022-12-14T18:52:22.026Z,-5.75
2022-12-14T18:54:54.208Z,-6.16
2022-12-14T18:57:22.108Z,-6.59
2022-12-14T18:59:51.516Z,-6.73
2022-12-14T19:02:19.926Z,-6.79
2022-12-14T19:04:49.117Z,-6.68
2022-12-14T19:07:17.160Z,-6.33
2022-12-14T19:09:45.085Z,-5.97
2022-12-14T19:12:13.149Z,-5.95
2022-12-14T19:14:41.171Z,-6.07
2022-12-14T19:17:10.524Z,-5.98
2022-12-14T19:19:44.193Z,-6.12
2022-12-14T19:22:12.729Z,-6.12
2022-12-14T19:24:40.867Z,-5.90
2022-12-14T19:27:08.930Z,-5.91
2022-12-14T19:29:37.014Z,-6.04
2022-12-14T19:32:05.964Z,-6.10
2022-12-14T19:34:35.646Z,-6.18
2022-12-14T19:37:03.584Z,-6.24
2022-12-14T19:39:31.480Z,-6.07
2022-12-14T19:41:59.385Z,-6.24
2022-12-14T19:44:27.463Z,-6.30
2022-12-14T19:46:55.467Z,-6.48
2022-12-14T19:49:23.714Z,-6.48
2022-12-14T19:51:53.156Z,-6.36
2022-12-14T19:54:21.565Z,-6.38
2022-12-14T19:56:52.001Z,-6.28
2022-12-14T19:59:20.285Z,-6.09
2022-12-14T20:01:48.975Z,-6.17
2022-12-14T20:04:17.421Z,-6.09
2022-12-14T20:06:45.433Z,-6.11
2022-12-14T20:09:15.762Z,-6.04
2022-12-14T20:11:43.994Z,-6.00
2022-12-14T20:14:12.628Z,-5.92
2022-12-14T20:16:40.899Z,-5.88
2022-12-14T20:19:08.962Z,-5.81
2022-12-14T20:21:36.916Z,-5.75
2022-12-14T20:24:05.018Z,-5.68
2022-12-14T20:26:34.393Z,-5.72
2022-12-14T20:29:05.040Z,-5.74
2022-12-14T20:31:33.105Z,-5.79
2022-12-14T20:34:02.117Z,-5.74
2022-12-14T20:36:30.704Z,-5.68
2022-12-14T20:39:01.366Z,-5.73
2022-12-14T20:41:31.706Z,-5.75
2022-12-14T20:44:02.129Z,-5.71
2022-12-14T20:46:32.103Z,-5.68
2022-12-14T20:49:02.154Z,-5.78
2022-12-14T20:51:31.075Z,-5.74
2022-12-14T20:53:59.256Z,-5.68
2022-12-14T20:56:27.357Z,-5.74
2022-12-14T20:58:55.404Z,-5.80
2022-12-14T21:01:25.079Z,-5.85
2022-12-14T21:03:53.200Z,-5.81
2022-12-14T21:06:23.151Z,-5.83
2022-12-14T21:09:05.258Z,-5.83
2022-12-14T21:11:51.360Z,-5.85
2022-12-14T21:14:20.486Z,-5.89
2022-12-14T21:16:49.852Z,-5.88
2022-12-14T21:19:17.973Z,-5.84
2022-12-14T21:21:53.076Z,-5.73
2022-12-14T21:24:44.762Z,-5.54
2022-12-14T21:27:10.960Z,-5.58
2022-12-14T21:29:38.875Z,-5.66
2022-12-14T21:32:08.250Z,-5.70
2022-12-14T21:34:36.216Z,-5.74
2022-12-14T21:37:04.183Z,-5.75
2022-12-14T21:39:32.128Z,-5.86
2022-12-14T21:42:12.675Z,-5.90
2022-12-14T21:44:41.535Z,-5.88
2022-12-14T21:47:12.846Z,-5.95
2022-12-14T21:49:42.118Z,-5.96
2022-12-14T21:52:10.944Z,-5.96
2022-12-14T21:54:39.033Z,-5.90
2022-12-14T21:57:24.413Z,-5.85
2022-12-14T21:59:52.342Z,-5.84
2022-12-14T22:02:23.299Z,-5.84
2022-12-14T22:04:55.908Z,-5.76
2022-12-14T22:07:25.423Z,-5.81
2022-12-14T22:09:53.350Z,-5.82
2022-12-14T22:12:21.352Z,-5.86
2022-12-14T22:14:50.052Z,-5.88
2022-12-14T22:17:17.956Z,-5.87
2022-12-14T22:19:48.518Z,-5.86
2022-12-14T22:22:17.004Z,-5.87
2022-12-14T22:24:45.049Z,-5.95
2022-12-14T22:27:13.775Z,-5.96
2022-12-14T22:29:41.717Z,-6.01
2022-12-14T22:32:11.931Z,-6.03
2022-12-14T22:34:40.125Z,-6.01
2022-12-14T22:37:09.412Z,-5.99
2022-12-14T22:39:37.330Z,-6.00
2022-12-14T22:42:05.469Z,-5.97
2022-12-14T22:44:33.408Z,-6.09
2022-12-14T22:47:01.281Z,-6.11
2022-12-14T22:49:29.168Z,-6.08
2022-12-14T22:51:57.068Z,-6.10
2022-12-14T22:54:27.627Z,-6.12
2022-12-14T22:56:57.638Z,-6.05
2022-12-14T22:59:28.961Z,-5.99
2022-12-14T23:01:56.987Z,-6.01
2022-12-14T23:04:25.066Z,-6.07
2022-12-14T23:06:53.012Z,-6.09
2022-12-14T23:09:38.249Z,-6.29
2022-12-14T23:12:25.265Z,-6.32
2022-12-14T23:15:10.749Z,-6.24
2022-12-14T23:17:56.199Z,-6.30
2022-12-14T23:20:41.499Z,-6.22
2022-12-14T23:23:27.624Z,-6.18
2022-12-14T23:26:13.120Z,-6.18
2022-12-14T23:29:00.127Z,-6.14
2022-12-14T23:31:45.528Z,-6.13
2022-12-14T23:34:30.728Z,-6.06
2022-12-14T23:37:20.125Z,-6.06
2022-12-14T23:40:05.942Z,-6.04
2022-12-14T23:42:51.253Z,-6.11
2022-12-14T23:45:38.227Z,-6.08
2022-12-14T23:48:23.657Z,-6.07
2022-12-14T23:51:08.956Z,-5.79
2022-12-14T23:53:54.391Z,-5.96
2022-12-14T23:56:39.743Z,-6.00
2022-12-14T23:59:31.563Z,-6.04
